createdAt,value
2023-03-06T00:00:41.421Z,8.73
2023-03-06T00:03:10.763Z,9.02
2023-03-06T00:05:40.220Z,6.70
2023-03-06T00:08:09.627Z,8.25
2023-03-06T00:10:39.044Z,4.55
2023-03-06T00:13:09.607Z,4.40
2023-03-06T00:15:38.931Z,7.70
2023-03-06T00:18:08.634Z,7.50
2023-03-06T00:20:38.557Z,7.13
2023-03-06T00:23:07.819Z,8.75
2023-03-06T00:25:38.936Z,5.53
2023-03-06T00:28:08.697Z,6.32
2023-03-06T00:30:38.353Z,8.85
2023-03-06T00:33:07.621Z,5.57
2023-03-06T00:35:36.893Z,7.18
2023-03-06T00:38:07.100Z,5.97
2023-03-06T00:40:36.552Z,5.30
2023-03-06T00:43:05.820Z,5.55
2023-03-06T00:45:35.144Z,6.13
2023-03-06T00:48:04.466Z,12.45
2023-03-06T00:50:35.226Z,7.35
2023-03-06T00:53:04.504Z,5.88
2023-03-06T00:55:33.827Z,7.60
2023-03-06T00:58:03.174Z,7.53
2023-03-06T01:00:32.487Z,8.25
2023-03-06T01:03:01.759Z,5.43
2023-03-06T01:05:31.025Z,8.23
2023-03-06T01:08:01.852Z,7.10
2023-03-06T01:10:31.647Z,7.65
2023-03-06T01:13:01.160Z,7.93
2023-03-06T01:15:30.457Z,6.90
2023-03-06T01:18:00.545Z,5.93
2023-03-06T01:20:29.880Z,8.00
2023-03-06T01:22:59.372Z,6.38
2023-03-06T01:25:28.867Z,11.07
2023-03-06T01:27:58.156Z,14.90
2023-03-06T01:30:27.394Z,10.32
2023-03-06T01:32:56.971Z,11.98
2023-03-06T01:35:26.321Z,11.55
2023-03-06T01:37:55.639Z,16.33
2023-03-06T01:40:24.984Z,14.13
2023-03-06T01:42:54.269Z,13.75
2023-03-06T01:45:23.461Z,14.13
2023-03-06T01:47:52.766Z,12.30
2023-03-06T01:50:22.079Z,14.18
2023-03-06T01:52:53.598Z,12.70
2023-03-06T01:55:35.530Z,11.15
2023-03-06T01:58:07.709Z,10.30
2023-03-06T02:00:37.250Z,10.02
2023-03-06T02:03:10.690Z,12.35
2023-03-06T02:05:42.146Z,8.68
2023-03-06T02:08:12.467Z,10.60
2023-03-06T02:10:46.909Z,8.88
2023-03-06T02:13:16.224Z,8.25
2023-03-06T02:15:45.488Z,7.93
2023-03-06T02:18:15.614Z,7.85
2023-03-06T02:21:00.105Z,7.72
2023-03-06T02:23:39.246Z,8.38
2023-03-06T02:26:09.463Z,8.25
2023-03-06T02:28:39.973Z,11.38
2023-03-06T02:31:10.204Z,10.98
2023-03-06T02:33:39.777Z,11.07
2023-03-06T02:36:09.954Z,9.18
2023-03-06T02:38:40.773Z,11.15
2023-03-06T02:41:11.146Z,9.13
2023-03-06T02:43:41.712Z,13.05
2023-03-06T02:46:11.176Z,8.23
2023-03-06T02:48:40.534Z,10.25
2023-03-06T02:51:09.828Z,8.45
2023-03-06T02:53:39.077Z,7.32
2023-03-06T02:56:08.540Z,10.93
2023-03-06T02:58:38.284Z,10.40
2023-03-06T03:01:07.970Z,12.55
2023-03-06T03:03:37.838Z,12.38
2023-03-06T03:06:08.261Z,10.95
2023-03-06T03:08:39.135Z,17.10
2023-03-06T03:11:09.268Z,10.77
2023-03-06T03:13:45.175Z,13.27
2023-03-06T03:16:19.970Z,14.15
2023-03-06T03:18:51.133Z,14.93
2023-03-06T03:21:22.995Z,12.18
2023-03-06T03:23:52.331Z,14.27
2023-03-06T03:26:23.033Z,14.10
2023-03-06T03:29:06.987Z,12.32
2023-03-06T03:31:36.348Z,12.23
2023-03-06T03:34:06.446Z,12.18
2023-03-06T03:36:39.633Z,12.52
2023-03-06T03:39:10.923Z,15.30
2023-03-06T03:41:40.550Z,11.18
2023-03-06T03:44:11.348Z,14.60
2023-03-06T03:46:41.010Z,12.55
2023-03-06T03:49:15.204Z,10.68
2023-03-06T03:51:46.335Z,12.05
2023-03-06T03:54:16.220Z,13.52
2023-03-06T03:56:48.880Z,14.63
2023-03-06T03:59:24.394Z,13.55
2023-03-06T04:02:07.244Z,13.27
2023-03-06T04:04:42.480Z,13.88
2023-03-06T04:07:13.956Z,15.50
2023-03-06T04:09:43.970Z,15.85
2023-03-06T04:12:13.905Z,12.52
2023-03-06T04:14:44.382Z,18.10
2023-03-06T04:17:14.086Z,12.50
2023-03-06T04:19:43.507Z,15.20
2023-03-06T04:22:13.971Z,14.27
2023-03-06T04:24:43.352Z,17.10
2023-03-06T04:27:12.771Z,14.63
2023-03-06T04:29:42.216Z,16.83
2023-03-06T04:32:11.706Z,13.35
2023-03-06T04:34:42.195Z,12.13
2023-03-06T04:37:15.687Z,10.95
2023-03-06T04:39:45.046Z,12.57
2023-03-06T04:42:14.354Z,13.63
2023-03-06T04:44:43.898Z,14.25
2023-03-06T04:47:13.897Z,14.85
2023-03-06T04:49:43.175Z,13.32
2023-03-06T04:52:12.465Z,17.40
2023-03-06T04:54:42.890Z,16.35
2023-03-06T04:57:14.196Z,14.90
2023-03-06T04:59:43.515Z,13.40
2023-03-06T05:02:12.820Z,14.32
2023-03-06T05:04:42.111Z,17.25
2023-03-06T05:07:11.368Z,13.07
2023-03-06T05:09:40.705Z,15.23
2023-03-06T05:12:10.106Z,11.90
2023-03-06T05:14:39.376Z,13.65
2023-03-06T05:17:08.664Z,13.48
2023-03-06T05:19:38.002Z,12.98
2023-03-06T05:22:07.820Z,13.88
2023-03-06T05:24:37.078Z,15.90
2023-03-06T05:27:07.120Z,13.90
2023-03-06T05:29:36.443Z,13.30
2023-03-06T05:32:05.822Z,14.60
2023-03-06T05:34:35.246Z,13.35
2023-03-06T05:37:04.574Z,14.95
2023-03-06T05:39:33.808Z,14.73
2023-03-06T05:42:03.118Z,12.77
2023-03-06T05:44:38.846Z,18.15
2023-03-06T05:47:08.204Z,15.55
2023-03-06T05:49:38.259Z,15.93
2023-03-06T05:52:07.790Z,14.93
2023-03-06T05:54:37.771Z,17.90
2023-03-06T05:57:07.663Z,14.27
2023-03-06T05:59:36.958Z,18.25
2023-03-06T06:02:06.883Z,15.32
2023-03-06T06:04:36.353Z,16.98
2023-03-06T06:07:06.048Z,18.17
2023-03-06T06:09:35.302Z,17.42
2023-03-06T06:12:05.657Z,15.48
2023-03-06T06:14:38.230Z,17.80
2023-03-06T06:17:07.632Z,18.08
2023-03-06T06:19:36.898Z,16.77
2023-03-06T06:22:08.662Z,15.50
2023-03-06T06:24:38.093Z,18.05
2023-03-06T06:27:07.883Z,23.08
2023-03-06T06:29:37.325Z,14.93
2023-03-06T06:32:06.660Z,22.00
2023-03-06T06:34:35.985Z,15.05
2023-03-06T06:37:05.438Z,17.27
2023-03-06T06:39:34.738Z,22.00
2023-03-06T06:42:28.171Z,19.23
2023-03-06T06:44:53.458Z,16.77
2023-03-06T06:47:24.839Z,20.08
2023-03-06T06:49:55.236Z,19.30
2023-03-06T06:52:24.863Z,15.73
2023-03-06T06:54:54.503Z,21.25
2023-03-06T06:57:23.961Z,19.05
2023-03-06T06:59:54.188Z,16.88
2023-03-06T07:02:23.820Z,16.52
2023-03-06T07:05:03.727Z,16.23
2023-03-06T07:07:36.635Z,17.55
2023-03-06T07:10:11.062Z,20.13
2023-03-06T07:12:40.370Z,19.77
2023-03-06T07:15:10.462Z,18.15
2023-03-06T07:17:39.719Z,21.52
2023-03-06T07:20:10.629Z,22.23
2023-03-06T07:22:50.290Z,21.88
2023-03-06T07:25:20.383Z,20.33
2023-03-06T07:27:53.619Z,16.70
2023-03-06T07:30:24.067Z,20.67
2023-03-06T07:32:57.248Z,23.00
2023-03-06T07:35:26.819Z,26.50
2023-03-06T07:37:56.089Z,21.13
2023-03-06T07:40:25.470Z,18.40
2023-03-06T07:43:09.415Z,19.23
2023-03-06T07:45:50.206Z,20.30
2023-03-06T07:48:19.456Z,21.55
2023-03-06T07:50:48.748Z,21.33
2023-03-06T07:53:18.034Z,21.33
2023-03-06T07:55:47.341Z,18.55
2023-03-06T07:58:16.686Z,20.15
2023-03-06T08:00:45.926Z,19.08
2023-03-06T08:03:15.360Z,23.88
2023-03-06T08:05:44.891Z,19.48
2023-03-06T08:08:14.617Z,16.92
2023-03-06T08:10:43.932Z,23.35
2023-03-06T08:13:13.191Z,24.48
2023-03-06T08:15:42.455Z,18.67
2023-03-06T08:18:11.982Z,22.65
2023-03-06T08:20:41.267Z,21.33
2023-03-06T08:23:11.999Z,20.58
2023-03-06T08:25:41.328Z,22.63
2023-03-06T08:28:10.632Z,22.95
2023-03-06T08:30:39.957Z,18.23
2023-03-06T08:33:09.213Z,24.10
2023-03-06T08:35:38.616Z,20.17
2023-03-06T08:38:07.916Z,18.00
2023-03-06T08:40:37.205Z,19.23
2023-03-06T08:43:06.652Z,24.50
2023-03-06T08:45:35.944Z,20.90
2023-03-06T08:48:05.219Z,18.08
2023-03-06T08:50:34.615Z,22.80
2023-03-06T08:53:04.175Z,18.88
2023-03-06T08:55:33.462Z,21.77
2023-03-06T08:58:04.124Z,20.10
2023-03-06T09:00:34.255Z,19.48
2023-03-06T09:03:03.710Z,18.52
2023-03-06T09:05:33.038Z,18.35
2023-03-06T09:08:03.428Z,19.05
2023-03-06T09:10:32.771Z,16.60
2023-03-06T09:13:02.407Z,10.60
2023-03-06T09:15:31.897Z,14.95
2023-03-06T09:18:01.247Z,13.35
2023-03-06T09:20:30.638Z,13.40
2023-03-06T09:22:59.979Z,15.85
2023-03-06T09:25:29.266Z,13.60
2023-03-06T09:28:11.031Z,13.70
2023-03-06T09:30:42.699Z,14.18
2023-03-06T09:33:12.112Z,11.38
2023-03-06T09:36:10.924Z,9.13
2023-03-06T09:38:40.264Z,12.18
2023-03-06T09:41:24.929Z,11.60
2023-03-06T09:43:55.988Z,9.00
2023-03-06T09:46:44.297Z,8.30
2023-03-06T09:49:25.817Z,6.35
2023-03-06T09:52:04.521Z,9.68
2023-03-06T09:54:40.445Z,7.03
2023-03-06T09:57:16.579Z,12.80
2023-03-06T09:59:47.975Z,6.45
2023-03-06T10:02:19.104Z,7.82
2023-03-06T10:05:01.794Z,6.05
2023-03-06T10:07:36.275Z,6.80
2023-03-06T10:10:08.303Z,6.45
2023-03-06T10:12:48.458Z,6.07
2023-03-06T10:15:19.545Z,6.90
2023-03-06T10:17:48.974Z,9.15
2023-03-06T10:20:18.991Z,9.55
2023-03-06T10:23:01.288Z,6.18
2023-03-06T10:25:51.236Z,6.18
2023-03-06T10:28:22.075Z,5.75
2023-03-06T10:31:10.585Z,3.70
2023-03-06T10:33:52.227Z,4.07
2023-03-06T10:36:22.768Z,3.35
2023-03-06T10:38:52.129Z,2.05
2023-03-06T10:41:21.394Z,2.05
2023-03-06T10:44:03.140Z,4.80
2023-03-06T10:46:34.395Z,4.20
2023-03-06T10:49:05.047Z,3.72
2023-03-06T10:51:35.638Z,2.92
2023-03-06T10:54:06.483Z,2.60
2023-03-06T10:56:37.229Z,2.78
2023-03-06T10:59:11.380Z,1.67
2023-03-06T11:01:41.033Z,3.90
2023-03-06T11:04:28.990Z,1.92
2023-03-06T11:07:07.470Z,2.92
2023-03-06T11:09:36.950Z,2.10
2023-03-06T11:12:25.161Z,2.40
2023-03-06T11:15:09.875Z,2.50
2023-03-06T11:17:40.673Z,1.98
2023-03-06T11:20:52.327Z,2.55
2023-03-06T11:23:24.353Z,1.88
2023-03-06T11:26:01.229Z,2.53
2023-03-06T11:28:35.424Z,3.10
2023-03-06T11:31:07.084Z,3.65
2023-03-06T11:33:46.464Z,3.60
2023-03-06T11:36:17.903Z,2.65
2023-03-06T11:38:47.240Z,3.83
2023-03-06T11:41:36.741Z,2.72
2023-03-06T11:44:16.434Z,2.20
2023-03-06T11:47:06.002Z,5.85
2023-03-06T11:49:39.800Z,3.55
2023-03-06T11:52:22.414Z,3.30
2023-03-06T11:57:23.308Z,4.03
2023-03-06T12:00:05.239Z,4.80
2023-03-06T12:02:52.360Z,5.22
2023-03-06T12:05:22.727Z,5.47
2023-03-06T12:08:12.631Z,4.43
2023-03-06T12:10:51.596Z,5.78
2023-03-06T12:16:18.686Z,5.82
2023-03-06T12:18:54.060Z,3.60
2023-03-06T12:21:31.102Z,7.10
2023-03-06T12:24:12.567Z,5.68
2023-03-06T12:26:44.831Z,3.92
2023-03-06T12:29:29.949Z,3.22
2023-03-06T12:32:06.385Z,3.88
2023-03-06T12:34:48.015Z,2.63
2023-03-06T12:37:23.321Z,4.32
2023-03-06T12:40:11.066Z,2.88
2023-03-06T12:42:59.322Z,4.43
2023-03-06T12:45:44.267Z,3.60
2023-03-06T12:48:33.885Z,4.25
2023-03-06T12:51:03.661Z,5.35
2023-03-06T12:53:34.803Z,3.83
2023-03-06T12:56:04.847Z,5.03
2023-03-06T12:58:34.146Z,4.03
2023-03-06T13:01:04.950Z,3.47
2023-03-06T13:03:57.735Z,4.57
2023-03-06T13:08:59.302Z,3.38
2023-03-06T13:13:57.789Z,4.00
2023-03-06T13:16:32.908Z,5.32
2023-03-06T13:19:14.607Z,3.35
2023-03-06T13:21:43.878Z,6.70
2023-03-06T13:24:22.397Z,3.95
2023-03-06T13:26:53.459Z,5.78
2023-03-06T13:29:41.021Z,8.25
2023-03-06T13:32:13.453Z,6.75
2023-03-06T13:37:23.228Z,4.70
2023-03-06T13:39:58.686Z,6.75
2023-03-06T13:42:32.361Z,9.48
2023-03-06T13:45:18.150Z,11.60
2023-03-06T13:48:14.125Z,10.45
2023-03-06T13:50:42.965Z,9.68
2023-03-06T13:53:22.575Z,11.52
2023-03-06T13:56:06.464Z,11.88
2023-03-06T13:58:47.660Z,10.48
2023-03-06T14:01:25.528Z,11.70
2023-03-06T14:04:04.011Z,11.05
2023-03-06T14:06:41.804Z,10.32
2023-03-06T14:09:18.558Z,10.90
2023-03-06T14:11:56.393Z,12.15
2023-03-06T14:14:31.618Z,10.70
2023-03-06T14:17:02.184Z,12.95
2023-03-06T14:19:33.823Z,16.30
2023-03-06T14:22:04.225Z,10.90
2023-03-06T14:24:39.613Z,13.00
2023-03-06T14:27:09.239Z,12.05
2023-03-06T14:29:38.620Z,14.18
2023-03-06T14:32:12.393Z,13.65
2023-03-06T14:34:43.606Z,10.15
2023-03-06T14:37:22.109Z,15.88
2023-03-06T14:39:51.960Z,11.65
2023-03-06T14:42:24.192Z,12.13
2023-03-06T14:45:05.640Z,11.20
2023-03-06T14:47:38.928Z,10.10
2023-03-06T14:50:21.733Z,10.18
2023-03-06T14:52:52.148Z,10.32
2023-03-06T14:55:22.796Z,10.68
2023-03-06T14:58:00.926Z,7.13
2023-03-06T15:00:36.308Z,9.70
2023-03-06T15:03:08.099Z,7.53
2023-03-06T15:05:37.909Z,7.80
2023-03-06T15:08:09.804Z,9.40
2023-03-06T15:10:39.487Z,9.98
2023-03-06T15:13:12.893Z,11.88
2023-03-06T15:15:42.401Z,12.20
2023-03-06T15:18:33.877Z,11.45
2023-03-06T15:21:20.951Z,11.70
2023-03-06T15:23:51.628Z,8.90
2023-03-06T15:26:20.933Z,12.00
2023-03-06T15:29:06.981Z,13.73
2023-03-06T15:31:39.330Z,14.52
2023-03-06T15:34:09.263Z,14.43
2023-03-06T15:36:39.440Z,11.15
2023-03-06T15:39:27.574Z,16.40
2023-03-06T15:42:20.757Z,12.68
2023-03-06T15:44:54.292Z,12.10
2023-03-06T15:47:24.365Z,13.15
2023-03-06T15:49:54.567Z,15.38
2023-03-06T15:52:24.630Z,15.65
2023-03-06T15:54:53.898Z,15.50
2023-03-06T15:57:25.153Z,18.33
2023-03-06T15:59:56.137Z,20.45
2023-03-06T16:02:26.107Z,19.48
2023-03-06T16:04:55.380Z,24.33
2023-03-06T16:07:25.272Z,18.65
2023-03-06T16:09:55.587Z,22.55
2023-03-06T16:12:25.350Z,23.10
2023-03-06T16:14:54.734Z,23.33
2023-03-06T16:17:24.102Z,23.58
2023-03-06T16:19:53.437Z,20.90
2023-03-06T16:22:22.814Z,24.73
2023-03-06T16:24:52.596Z,23.50
2023-03-06T16:27:25.706Z,26.48
2023-03-06T16:29:55.070Z,25.40
2023-03-06T16:32:27.104Z,25.40
2023-03-06T16:34:57.914Z,27.60
2023-03-06T16:37:27.338Z,24.23
2023-03-06T16:39:56.680Z,26.65
2023-03-06T16:42:25.980Z,27.73
2023-03-06T16:44:55.417Z,28.00
2023-03-06T16:47:24.729Z,25.40
2023-03-06T16:50:01.932Z,27.13
2023-03-06T16:52:34.102Z,27.10
2023-03-06T16:55:03.602Z,27.35
2023-03-06T16:57:35.751Z,27.08
2023-03-06T17:00:06.634Z,26.85
2023-03-06T17:02:36.116Z,23.08
2023-03-06T17:05:05.753Z,29.13
2023-03-06T17:07:35.776Z,27.05
2023-03-06T17:10:05.533Z,26.10
2023-03-06T17:12:34.839Z,26.10
2023-03-06T17:15:04.231Z,27.08
2023-03-06T17:17:33.707Z,25.52
2023-03-06T17:20:03.177Z,23.25
2023-03-06T17:22:34.978Z,22.92
2023-03-06T17:25:06.821Z,24.08
2023-03-06T17:27:37.104Z,32.95
2023-03-06T17:30:07.199Z,24.80
2023-03-06T17:32:36.605Z,24.58
2023-03-06T17:35:05.996Z,28.98
2023-03-06T17:37:35.348Z,24.25
2023-03-06T17:40:04.778Z,26.38
2023-03-06T17:42:34.078Z,26.77
2023-03-06T17:45:05.127Z,25.23
2023-03-06T17:47:34.797Z,23.35
2023-03-06T17:50:04.126Z,29.52
2023-03-06T17:52:33.847Z,30.65
2023-03-06T17:55:03.238Z,24.90
2023-03-06T17:57:32.573Z,27.67
2023-03-06T18:00:01.913Z,25.10
2023-03-06T18:02:41.642Z,27.75
2023-03-06T18:05:11.428Z,27.40
2023-03-06T18:07:40.868Z,30.65
2023-03-06T18:10:10.364Z,29.55
2023-03-06T18:12:39.760Z,24.45
2023-03-06T18:15:09.363Z,31.77
2023-03-06T18:17:38.655Z,33.60
2023-03-06T18:20:09.175Z,27.58
2023-03-06T18:22:38.479Z,29.40
2023-03-06T18:25:07.903Z,27.90
2023-03-06T18:27:37.820Z,31.77
2023-03-06T18:30:07.532Z,25.33
2023-03-06T18:32:37.745Z,37.95
2023-03-06T18:35:09.260Z,28.90
2023-03-06T18:37:38.571Z,27.80
2023-03-06T18:40:08.209Z,28.70
2023-03-06T18:42:37.483Z,27.50
2023-03-06T18:45:06.870Z,32.17
2023-03-06T18:47:36.452Z,28.52
2023-03-06T18:50:06.088Z,30.30
2023-03-06T18:52:36.655Z,31.42
2023-03-06T18:55:06.544Z,31.10
2023-03-06T18:57:35.779Z,27.90
2023-03-06T19:00:05.068Z,31.80
2023-03-06T19:02:34.490Z,27.83
2023-03-06T19:05:03.832Z,27.02
2023-03-06T19:07:33.122Z,29.10
2023-03-06T19:10:02.508Z,30.25
2023-03-06T19:12:31.771Z,34.90
2023-03-06T19:15:01.072Z,29.70
2023-03-06T19:17:31.619Z,27.63
2023-03-06T19:20:00.878Z,29.70
2023-03-06T19:22:30.121Z,31.50
2023-03-06T19:24:59.367Z,26.40
2023-03-06T19:27:28.671Z,33.03
2023-03-06T19:29:57.991Z,28.58
2023-03-06T19:32:27.640Z,25.90
2023-03-06T19:34:59.336Z,23.42
2023-03-06T19:37:28.827Z,25.02
2023-03-06T19:40:01.413Z,25.50
2023-03-06T19:42:30.904Z,26.40
2023-03-06T19:45:00.277Z,27.60
2023-03-06T19:47:29.560Z,24.02
2023-03-06T19:50:01.089Z,27.35
2023-03-06T19:52:30.428Z,23.23
2023-03-06T19:54:59.689Z,24.60
2023-03-06T19:57:29.005Z,24.17
2023-03-06T19:59:58.849Z,20.90
2023-03-06T20:02:28.184Z,25.50
2023-03-06T20:04:57.817Z,22.08
2023-03-06T20:07:27.292Z,24.35
2023-03-06T20:10:00.445Z,24.15
2023-03-06T20:12:29.860Z,19.23
2023-03-06T20:14:59.197Z,22.52
2023-03-06T20:17:28.696Z,21.83
2023-03-06T20:19:58.175Z,27.83
2023-03-06T20:22:27.492Z,22.90
2023-03-06T20:24:56.903Z,23.17
2023-03-06T20:27:26.233Z,22.40
2023-03-06T20:29:55.576Z,21.33
2023-03-06T20:32:24.914Z,24.08
2023-03-06T20:34:54.186Z,25.63
2023-03-06T20:37:23.477Z,28.45
2023-03-06T20:39:52.754Z,25.70
2023-03-06T20:42:22.044Z,20.17
2023-03-06T20:44:51.298Z,24.80
2023-03-06T20:47:20.537Z,21.92
2023-03-06T20:49:49.751Z,25.42
2023-03-06T20:52:19.243Z,23.27
2023-03-06T20:54:48.509Z,21.50
2023-03-06T20:57:17.759Z,22.08
2023-03-06T20:59:47.693Z,26.77
2023-03-06T21:02:17.968Z,25.95
2023-03-06T21:04:47.357Z,25.83
2023-03-06T21:07:17.062Z,24.83
2023-03-06T21:09:47.696Z,28.23
2023-03-06T21:12:16.978Z,26.35
2023-03-06T21:14:46.221Z,23.25
2023-03-06T21:17:15.517Z,23.38
2023-03-06T21:19:46.033Z,25.50
2023-03-06T21:22:15.806Z,25.33
2023-03-06T21:24:45.151Z,26.20
2023-03-06T21:27:14.488Z,22.38
2023-03-06T21:29:43.796Z,28.80
2023-03-06T21:32:13.073Z,25.13
2023-03-06T21:34:42.361Z,25.33
2023-03-06T21:37:11.633Z,27.45
2023-03-06T21:39:41.362Z,26.67
2023-03-06T21:42:10.652Z,30.67
2023-03-06T21:44:39.950Z,26.95
2023-03-06T21:47:09.421Z,29.48
2023-03-06T21:49:38.694Z,23.70
2023-03-06T21:52:07.991Z,24.63
2023-03-06T21:54:37.281Z,26.25
2023-03-06T21:57:06.594Z,24.77
2023-03-06T21:59:35.869Z,21.70
2023-03-06T22:02:05.156Z,26.00
2023-03-06T22:04:34.508Z,24.10
2023-03-06T22:07:03.869Z,22.52
2023-03-06T22:09:33.128Z,23.90
2023-03-06T22:12:02.424Z,22.00
2023-03-06T22:14:31.667Z,23.20
2023-03-06T22:17:01.535Z,20.38
2023-03-06T22:19:30.872Z,24.75
2023-03-06T22:22:00.102Z,24.35
2023-03-06T22:24:29.326Z,21.90
2023-03-06T22:26:58.638Z,23.15
2023-03-06T22:29:28.043Z,21.45
2023-03-06T22:31:57.399Z,21.55
2023-03-06T22:34:26.689Z,22.30
2023-03-06T22:36:56.007Z,23.42
2023-03-06T22:39:25.398Z,20.55
2023-03-06T22:41:57.338Z,23.05
2023-03-06T22:44:26.657Z,18.60
2023-03-06T22:46:56.067Z,18.75
2023-03-06T22:49:25.363Z,20.48
2023-03-06T22:51:54.614Z,21.35
2023-03-06T22:54:23.864Z,17.33
2023-03-06T22:56:53.209Z,22.88
2023-03-06T22:59:22.508Z,20.05
2023-03-06T23:01:51.769Z,17.08
2023-03-06T23:04:21.023Z,17.30
2023-03-06T23:06:50.329Z,16.20
2023-03-06T23:09:21.426Z,18.05
2023-03-06T23:12:11.573Z,18.45
2023-03-06T23:14:59.554Z,13.95
2023-03-06T23:17:47.574Z,16.38
2023-03-06T23:20:35.283Z,15.40
2023-03-06T23:23:22.868Z,17.42
2023-03-06T23:25:52.088Z,17.20
2023-03-06T23:28:21.604Z,14.57
2023-03-06T23:30:51.073Z,14.52
2023-03-06T23:33:20.449Z,13.55
2023-03-06T23:35:49.774Z,13.77
2023-03-06T23:38:19.163Z,12.07
2023-03-06T23:40:49.602Z,12.98
2023-03-06T23:43:18.972Z,13.90
2023-03-06T23:45:55.290Z,12.60
2023-03-06T23:48:24.983Z,16.05
2023-03-06T23:50:54.280Z,10.45
2023-03-06T23:53:23.949Z,12.30
2023-03-06T23:55:53.902Z,11.65
2023-03-06T23:58:23.358Z,12.13
